createdAt,value
2018-04-22T00:01:43.944Z,18.67
2018-04-22T00:04:13.559Z,14.63
2018-04-22T00:06:43.181Z,16.67
2018-04-22T00:09:12.056Z,18.43
2018-04-22T00:11:40.897Z,16.03
2018-04-22T00:14:10.513Z,17.27
2018-04-22T00:16:39.371Z,16.13
2018-04-22T00:19:08.229Z,16.67
2018-04-22T00:21:37.072Z,17.00
2018-04-22T00:24:06.712Z,14.93
2018-04-22T00:26:35.549Z,18.03
2018-04-22T00:29:04.389Z,16.90
2018-04-22T00:31:33.249Z,16.17
2018-04-22T00:34:02.860Z,16.00
2018-04-22T00:36:31.741Z,16.53
2018-04-22T00:39:01.573Z,16.10
2018-04-22T00:41:30.843Z,15.70
2018-04-22T00:44:01.342Z,15.30
2018-04-22T00:46:30.196Z,15.80
2018-04-22T00:48:59.043Z,16.27
2018-04-22T00:51:27.930Z,16.27
2018-04-22T00:54:08.665Z,16.33
2018-04-22T00:56:38.172Z,16.43
2018-04-22T00:59:07.020Z,17.20
2018-04-22T01:01:36.629Z,17.97
2018-04-22T01:04:06.253Z,16.60
2018-04-22T01:06:35.113Z,16.57
2018-04-22T01:09:06.573Z,19.37
2018-04-22T01:11:37.130Z,15.77
2018-04-22T01:14:05.994Z,16.70
2018-04-22T01:16:35.325Z,16.10
2018-04-22T01:19:04.160Z,15.80
2018-04-22T01:21:33.004Z,16.60
2018-04-22T01:24:01.869Z,14.83
2018-04-22T01:26:31.477Z,14.80
2018-04-22T01:29:01.097Z,15.33
2018-04-22T01:31:29.930Z,14.03
2018-04-22T01:33:59.736Z,15.73
2018-04-22T01:36:28.540Z,16.87
2018-04-22T01:38:57.385Z,17.17
2018-04-22T01:41:26.238Z,16.70
2018-04-22T01:43:55.862Z,19.00
2018-04-22T01:46:24.710Z,17.33
2018-04-22T01:48:53.570Z,18.73
2018-04-22T01:51:22.410Z,18.97
2018-04-22T01:53:51.256Z,18.37
2018-04-22T01:56:20.113Z,16.93
2018-04-22T01:58:49.740Z,15.87
2018-04-22T02:01:18.580Z,16.13
2018-04-22T02:03:48.624Z,15.40
2018-04-22T02:06:18.224Z,16.90
2018-04-22T02:08:47.870Z,16.40
2018-04-22T02:11:20.251Z,16.80
2018-04-22T02:13:53.112Z,16.77
2018-04-22T02:16:21.957Z,17.33
2018-04-22T02:18:50.940Z,17.53
2018-04-22T02:21:19.801Z,18.10
2018-04-22T02:23:49.424Z,17.77
2018-04-22T02:26:18.282Z,17.07
2018-04-22T02:28:47.128Z,19.60
2018-04-22T02:31:15.987Z,18.17
2018-04-22T02:33:45.592Z,16.97
2018-04-22T02:36:15.205Z,18.17
2018-04-22T02:38:44.051Z,18.07
2018-04-22T02:41:12.910Z,19.40
2018-04-22T02:43:41.745Z,17.20
2018-04-22T02:46:10.588Z,17.20
2018-04-22T02:48:39.452Z,17.20
2018-04-22T02:51:09.069Z,18.07
2018-04-22T02:53:37.927Z,16.90
2018-04-22T02:56:06.789Z,18.67
2018-04-22T02:58:35.625Z,17.97
2018-04-22T03:01:05.253Z,18.47
2018-04-22T03:03:34.088Z,18.50
2018-04-22T03:06:02.948Z,18.83
2018-04-22T03:08:31.775Z,17.60
2018-04-22T03:11:00.765Z,18.03
2018-04-22T03:13:29.604Z,17.80
2018-04-22T03:15:59.621Z,18.20
2018-04-22T03:18:29.232Z,17.23
2018-04-22T03:20:58.840Z,18.63
2018-04-22T03:23:28.461Z,21.57
2018-04-22T03:25:57.318Z,19.50
2018-04-22T03:28:26.171Z,20.53
2018-04-22T03:30:55.757Z,19.20
2018-04-22T03:33:24.606Z,18.63
2018-04-22T03:35:53.451Z,16.67
2018-04-22T03:38:22.304Z,18.13
2018-04-22T03:40:51.934Z,17.30
2018-04-22T03:43:20.791Z,18.67
2018-04-22T03:45:50.401Z,18.33
2018-04-22T03:48:20.016Z,17.93
2018-04-22T03:50:49.628Z,17.63
2018-04-22T03:53:18.912Z,17.23
2018-04-22T03:55:48.520Z,18.47
2018-04-22T03:58:18.133Z,19.00
2018-04-22T04:00:47.785Z,18.40
2018-04-22T04:03:16.638Z,18.23
2018-04-22T04:05:45.742Z,20.07
2018-04-22T04:08:14.621Z,18.20
2018-04-22T04:10:44.241Z,19.83
2018-04-22T04:13:13.092Z,19.13
2018-04-22T04:15:42.705Z,19.00
2018-04-22T04:21:38.050Z,23.23
2018-04-22T04:24:27.567Z,18.40
2018-04-22T04:27:19.914Z,18.13
2018-04-22T04:29:48.766Z,19.13
2018-04-22T04:32:17.597Z,18.67
2018-04-22T04:34:47.226Z,19.30
2018-04-22T04:37:16.080Z,20.13
2018-04-22T04:39:44.936Z,18.63
2018-04-22T04:42:13.762Z,18.70
2018-04-22T04:44:42.597Z,18.17
2018-04-22T04:47:11.454Z,18.83
2018-04-22T04:49:41.064Z,20.40
2018-04-22T04:52:10.680Z,19.27
2018-04-22T04:54:40.296Z,18.37
2018-04-22T04:57:09.273Z,17.50
2018-04-22T04:59:38.909Z,16.90
2018-04-22T05:02:07.759Z,23.50
2018-04-22T05:04:36.603Z,19.43
2018-04-22T05:07:05.452Z,19.83
2018-04-22T05:09:35.066Z,17.53
2018-04-22T05:12:04.158Z,18.70
2018-04-22T05:14:33.017Z,18.50
2018-04-22T05:17:02.632Z,18.70
2018-04-22T05:19:31.489Z,18.37
2018-04-22T05:22:00.353Z,17.70
2018-04-22T05:24:29.193Z,17.87
2018-04-22T05:26:58.819Z,18.63
2018-04-22T05:29:27.669Z,18.10
2018-04-22T05:31:56.613Z,19.17
2018-04-22T05:34:25.513Z,16.00
2018-04-22T05:36:55.077Z,18.93
2018-04-22T05:39:24.715Z,18.13
2018-04-22T05:41:54.404Z,16.27
2018-04-22T05:44:24.548Z,17.53
2018-04-22T05:46:53.431Z,17.13
2018-04-22T05:49:22.268Z,17.13
2018-04-22T05:51:51.108Z,17.33
2018-04-22T05:54:19.964Z,18.83
2018-04-22T05:56:49.565Z,19.27
2018-04-22T05:59:18.428Z,18.73
2018-04-22T06:01:47.351Z,18.20
2018-04-22T06:04:16.996Z,18.93
2018-04-22T06:06:45.841Z,17.80
2018-04-22T06:09:14.821Z,18.60
2018-04-22T06:11:43.648Z,19.13
2018-04-22T06:14:13.773Z,17.40
2018-04-22T06:16:42.649Z,17.50
2018-04-22T06:19:12.270Z,17.17
2018-04-22T06:21:41.888Z,18.20
2018-04-22T06:24:11.089Z,17.07
2018-04-22T06:26:40.039Z,16.60
2018-04-22T06:29:08.896Z,17.00
2018-04-22T06:31:38.086Z,18.43
2018-04-22T06:34:06.933Z,18.03
2018-04-22T06:36:36.540Z,18.40
2018-04-22T06:39:06.164Z,17.13
2018-04-22T06:41:35.013Z,20.50
2018-04-22T06:44:04.962Z,18.63
2018-04-22T06:46:34.589Z,18.30
2018-04-22T06:49:03.624Z,19.30
2018-04-22T06:51:32.470Z,18.50
2018-04-22T06:54:01.411Z,19.17
2018-04-22T06:56:30.238Z,20.30
2018-04-22T06:58:59.088Z,19.23
2018-04-22T07:01:27.955Z,19.60
2018-04-22T07:03:56.799Z,20.93
2018-04-22T07:06:26.426Z,24.07
2018-04-22T07:08:55.265Z,21.83
2018-04-22T07:11:24.121Z,20.20
2018-04-22T07:13:52.973Z,19.50
2018-04-22T07:16:21.832Z,22.67
2018-04-22T07:18:51.452Z,20.37
2018-04-22T07:21:20.314Z,24.47
2018-04-22T07:23:49.156Z,21.50
2018-04-22T07:26:18.014Z,21.13
2018-04-22T07:28:47.661Z,21.00
2018-04-22T07:31:16.529Z,21.27
2018-04-22T07:33:45.398Z,20.87
2018-04-22T07:36:15.013Z,22.17
2018-04-22T07:38:44.624Z,20.43
2018-04-22T07:41:13.492Z,21.87
2018-04-22T07:43:43.126Z,23.03
2018-04-22T07:46:12.716Z,21.33
2018-04-22T07:48:42.349Z,21.90
2018-04-22T07:51:11.210Z,21.90
2018-04-22T07:53:40.820Z,22.77
2018-04-22T07:56:10.457Z,23.10
2018-04-22T07:58:39.321Z,23.63
2018-04-22T08:01:08.925Z,23.47
2018-04-22T08:03:38.548Z,22.20
2018-04-22T08:06:07.659Z,22.97
2018-04-22T08:08:36.559Z,21.93
2018-04-22T08:11:05.548Z,21.30
2018-04-22T08:13:34.406Z,22.07
2018-04-22T08:16:03.467Z,20.37
2018-04-22T08:18:32.315Z,19.80
2018-04-22T08:21:01.197Z,20.93
2018-04-22T08:23:30.803Z,20.30
2018-04-22T08:25:59.969Z,22.10
2018-04-22T08:28:30.094Z,19.83
2018-04-22T08:30:58.913Z,22.23
2018-04-22T08:33:27.796Z,28.10
2018-04-22T08:35:57.377Z,21.00
2018-04-22T08:38:26.988Z,22.70
2018-04-22T08:40:56.989Z,19.20
2018-04-22T08:43:26.295Z,25.23
2018-04-22T08:45:55.144Z,20.23
2018-04-22T08:48:24.000Z,19.70
2018-04-22T08:50:52.844Z,19.10
2018-04-22T08:53:23.241Z,20.17
2018-04-22T08:55:52.129Z,18.27
2018-04-22T08:58:20.956Z,17.77
2018-04-22T09:00:50.592Z,19.27
2018-04-22T09:03:19.450Z,17.60
2018-04-22T09:05:48.332Z,18.43
2018-04-22T09:08:17.175Z,18.83
2018-04-22T09:10:46.054Z,19.33
2018-04-22T09:13:14.915Z,20.40
2018-04-22T09:15:45.172Z,17.60
2018-04-22T09:18:14.155Z,17.43
2018-04-22T09:20:42.974Z,20.47
2018-04-22T09:23:12.593Z,16.80
2018-04-22T09:25:41.460Z,15.20
2018-04-22T09:28:11.105Z,22.67
2018-04-22T09:30:40.001Z,17.40
2018-04-22T09:33:08.881Z,17.13
2018-04-22T09:35:38.894Z,14.50
2018-04-22T09:38:07.770Z,15.00
2018-04-22T09:40:37.385Z,13.07
2018-04-22T09:43:06.283Z,14.13
2018-04-22T09:45:35.870Z,12.83
2018-04-22T09:48:05.505Z,14.90
2018-04-22T09:50:34.366Z,13.17
2018-04-22T09:53:03.979Z,14.40
2018-04-22T09:55:33.598Z,15.10
2018-04-22T09:58:03.226Z,13.43
2018-04-22T10:00:32.066Z,14.00
2018-04-22T10:03:06.760Z,13.77
2018-04-22T10:05:41.274Z,10.57
2018-04-22T10:08:10.168Z,11.27
2018-04-22T10:10:39.060Z,10.20
2018-04-22T10:13:07.926Z,9.33
2018-04-22T10:15:37.514Z,8.90
2018-04-22T10:18:06.381Z,9.67
2018-04-22T10:20:35.221Z,9.03
2018-04-22T10:23:04.070Z,7.70
2018-04-22T10:25:32.910Z,11.00
2018-04-22T10:28:02.860Z,7.90
2018-04-22T10:30:32.465Z,10.27
2018-04-22T10:33:01.357Z,8.27
2018-04-22T10:35:30.192Z,8.90
2018-04-22T10:37:59.075Z,6.93
2018-04-22T10:40:27.901Z,8.00
2018-04-22T10:42:56.773Z,7.23
2018-04-22T10:45:25.638Z,7.10
2018-04-22T10:47:54.494Z,6.63
2018-04-22T10:50:24.730Z,7.70
2018-04-22T10:52:53.570Z,8.33
2018-04-22T10:55:22.422Z,6.97
2018-04-22T10:57:51.274Z,7.23
2018-04-22T11:00:20.868Z,7.97
2018-04-22T11:02:50.784Z,9.10
2018-04-22T11:05:20.413Z,10.93
2018-04-22T11:07:50.005Z,7.57
2018-04-22T11:10:19.642Z,6.87
2018-04-22T11:12:48.491Z,8.90
2018-04-22T11:15:18.821Z,7.97
2018-04-22T11:17:47.677Z,7.37
2018-04-22T11:20:16.547Z,8.37
2018-04-22T11:22:45.395Z,9.30
2018-04-22T11:25:14.215Z,7.57
2018-04-22T11:27:43.843Z,9.90
2018-04-22T11:30:12.687Z,7.83
2018-04-22T11:32:41.833Z,10.60
2018-04-22T11:35:10.676Z,11.97
2018-04-22T11:37:40.505Z,7.93
2018-04-22T11:40:09.341Z,7.13
2018-04-22T11:42:38.184Z,7.00
2018-04-22T11:45:08.228Z,10.23
2018-04-22T11:47:37.095Z,9.53
2018-04-22T11:50:05.933Z,13.40
2018-04-22T11:52:34.819Z,7.97
2018-04-22T11:55:03.653Z,7.10
2018-04-22T11:57:32.512Z,8.40
2018-04-22T12:00:01.396Z,10.13
2018-04-22T12:02:30.181Z,9.00
2018-04-22T12:04:59.009Z,5.97
2018-04-22T12:07:27.888Z,7.07
2018-04-22T12:09:56.723Z,8.80
2018-04-22T12:12:25.822Z,7.57
2018-04-22T12:14:54.791Z,8.37
2018-04-22T12:17:23.627Z,8.97
2018-04-22T12:19:52.468Z,7.80
2018-04-22T12:22:21.345Z,8.07
2018-04-22T12:24:50.169Z,7.33
2018-04-22T12:27:19.222Z,10.70
2018-04-22T12:29:48.336Z,7.07
2018-04-22T12:32:17.192Z,9.80
2018-04-22T12:34:46.816Z,11.60
2018-04-22T12:37:15.654Z,6.33
2018-04-22T12:39:44.515Z,9.00
2018-04-22T12:42:13.364Z,8.00
2018-04-22T12:44:42.978Z,8.90
2018-04-22T12:47:12.596Z,10.07
2018-04-22T12:49:41.926Z,7.67
2018-04-22T12:52:11.597Z,9.60
2018-04-22T12:54:40.759Z,8.63
2018-04-22T12:57:09.618Z,7.83
2018-04-22T12:59:38.448Z,9.10
2018-04-22T13:02:07.290Z,7.00
2018-04-22T13:04:36.134Z,6.50
2018-04-22T13:07:05.742Z,16.10
2018-04-22T13:09:35.361Z,11.17
2018-04-22T13:12:04.962Z,8.90
2018-04-22T13:14:34.569Z,6.10
2018-04-22T13:17:04.528Z,7.90
2018-04-22T13:19:34.120Z,6.23
2018-04-22T13:22:02.979Z,7.90
2018-04-22T13:24:31.864Z,12.53
2018-04-22T13:27:00.722Z,6.20
2018-04-22T13:29:29.607Z,10.30
2018-04-22T13:31:58.474Z,8.73
2018-04-22T13:34:28.092Z,6.70
2018-04-22T13:36:56.935Z,6.77
2018-04-22T13:39:25.789Z,6.93
2018-04-22T13:41:54.649Z,13.07
2018-04-22T13:44:23.794Z,12.00
2018-04-22T13:46:52.670Z,6.10
2018-04-22T13:49:21.534Z,5.77
2018-04-22T13:51:50.748Z,7.53
2018-04-22T13:54:19.659Z,6.27
2018-04-22T13:56:48.695Z,9.53
2018-04-22T13:59:18.329Z,10.43
2018-04-22T14:01:47.918Z,8.73
2018-04-22T14:04:17.541Z,7.80
2018-04-22T14:06:46.363Z,7.70
2018-04-22T14:09:15.206Z,11.83
2018-04-22T14:11:44.837Z,9.60
2018-04-22T14:14:14.609Z,6.10
2018-04-22T14:16:43.529Z,8.00
2018-04-22T14:19:13.401Z,43.97
2018-04-22T14:21:42.262Z,28.50
2018-04-22T14:24:11.102Z,18.87
2018-04-22T14:26:39.951Z,15.57
2018-04-22T14:29:08.811Z,18.03
2018-04-22T14:31:37.702Z,28.67
2018-04-22T14:34:08.035Z,16.23
2018-04-22T14:36:37.655Z,13.63
2018-04-22T14:39:06.501Z,16.00
2018-04-22T14:41:36.145Z,18.00
2018-04-22T14:44:16.927Z,17.43
2018-04-22T14:46:45.800Z,13.73
2018-04-22T14:49:14.726Z,15.27
2018-04-22T14:51:43.580Z,15.83
2018-04-22T14:54:12.404Z,22.37
2018-04-22T14:56:41.308Z,17.03
2018-04-22T14:59:10.146Z,13.00
2018-04-22T15:01:38.992Z,14.97
2018-04-22T15:04:08.641Z,22.00
2018-04-22T15:06:37.507Z,14.70
2018-04-22T15:09:06.377Z,14.87
2018-04-22T15:11:36.866Z,18.27
2018-04-22T15:14:05.708Z,12.57
2018-04-22T15:16:35.349Z,10.80
2018-04-22T15:19:04.210Z,11.90
2018-04-22T15:21:33.034Z,10.33
2018-04-22T15:24:02.673Z,6.50
2018-04-22T15:26:32.306Z,6.10
2018-04-22T15:29:01.189Z,36.30
2018-04-22T15:31:30.037Z,11.77
2018-04-22T15:33:59.674Z,6.40
2018-04-22T15:36:28.501Z,8.60
2018-04-22T15:38:57.375Z,11.60
2018-04-22T15:41:26.220Z,7.30
2018-04-22T15:43:55.086Z,10.60
2018-04-22T15:46:23.913Z,8.40
2018-04-22T15:48:52.790Z,7.90
2018-04-22T15:51:22.393Z,7.83
2018-04-22T15:53:52.036Z,9.50
2018-04-22T15:56:20.905Z,7.97
2018-04-22T15:58:50.534Z,7.73
2018-04-22T16:01:20.137Z,11.90
2018-04-22T16:03:48.979Z,7.57
2018-04-22T16:06:17.874Z,7.93
2018-04-22T16:08:46.685Z,7.67
2018-04-22T16:11:16.293Z,10.30
2018-04-22T16:13:45.954Z,11.37
2018-04-22T16:16:14.864Z,10.13
2018-04-22T16:18:43.738Z,10.97
2018-04-22T16:21:13.365Z,7.87
2018-04-22T16:23:42.219Z,7.70
2018-04-22T16:26:12.594Z,9.70
2018-04-22T16:28:41.432Z,8.47
2018-04-22T16:31:10.340Z,8.17
2018-04-22T16:33:40.341Z,7.70
2018-04-22T16:36:09.966Z,9.70
2018-04-22T16:38:39.581Z,9.87
2018-04-22T16:41:08.464Z,10.40
2018-04-22T16:43:37.920Z,10.87
2018-04-22T16:46:06.784Z,11.60
2018-04-22T16:48:35.663Z,11.43
2018-04-22T16:51:05.285Z,8.87
2018-04-22T16:53:34.143Z,9.87
2018-04-22T16:56:04.272Z,9.50
2018-04-22T16:58:33.127Z,10.30
2018-04-22T17:01:02.948Z,9.97
2018-04-22T17:03:32.570Z,10.43
2018-04-22T17:06:01.525Z,14.87
2018-04-22T17:08:30.360Z,9.83
2018-04-22T17:10:59.979Z,9.13
2018-04-22T17:13:29.154Z,9.27
2018-04-22T17:15:58.755Z,9.63
2018-04-22T17:18:28.398Z,8.80
2018-04-22T17:20:57.228Z,10.17
2018-04-22T17:23:26.084Z,9.27
2018-04-22T17:25:54.965Z,9.00
2018-04-22T17:28:24.554Z,9.47
2018-04-22T17:30:54.010Z,9.90
2018-04-22T17:33:24.424Z,14.13
2018-04-22T17:35:53.290Z,10.60
2018-04-22T17:38:22.141Z,8.97
2018-04-22T17:40:51.797Z,10.43
2018-04-22T17:43:20.637Z,9.67
2018-04-22T17:45:49.488Z,9.83
2018-04-22T17:48:18.335Z,9.43
2018-04-22T17:50:48.446Z,8.63
2018-04-22T17:53:17.373Z,9.60
2018-04-22T17:55:47.005Z,18.87
2018-04-22T17:58:15.867Z,9.33
2018-04-22T18:00:46.556Z,9.30
2018-04-22T18:03:15.384Z,9.00
2018-04-22T18:05:46.017Z,9.67
2018-04-22T18:08:15.646Z,10.00
2018-04-22T18:10:45.271Z,11.10
2018-04-22T18:13:14.167Z,16.30
2018-04-22T18:15:43.012Z,11.03
2018-04-22T18:18:12.635Z,10.93
2018-04-22T18:20:41.711Z,13.13
2018-04-22T18:23:10.610Z,11.03
2018-04-22T18:25:39.464Z,12.10
2018-04-22T18:28:09.080Z,11.93
2018-04-22T18:30:37.953Z,9.87
2018-04-22T18:33:06.831Z,8.90
2018-04-22T18:35:35.659Z,9.57
2018-04-22T18:38:04.642Z,10.80
2018-04-22T18:40:33.578Z,10.20
2018-04-22T18:43:02.457Z,10.13
2018-04-22T18:45:31.322Z,10.43
2018-04-22T18:48:00.195Z,11.20
2018-04-22T18:50:29.047Z,8.03
2018-04-22T18:52:57.914Z,7.40
2018-04-22T18:55:26.747Z,8.97
2018-04-22T18:57:55.598Z,10.30
2018-04-22T19:00:24.486Z,9.13
2018-04-22T19:02:53.383Z,9.93
2018-04-22T19:05:22.244Z,9.23
2018-04-22T19:07:51.961Z,8.77
2018-04-22T19:10:20.805Z,10.10
2018-04-22T19:12:49.692Z,8.50
2018-04-22T19:15:18.762Z,9.10
2018-04-22T19:17:47.617Z,8.97
2018-04-22T19:20:16.460Z,9.70
2018-04-22T19:22:46.162Z,19.43
2018-04-22T19:25:15.080Z,11.33
2018-04-22T19:27:44.682Z,10.80
2018-04-22T19:30:14.333Z,14.67
2018-04-22T19:32:43.168Z,11.73
2018-04-22T19:35:13.398Z,11.97
2018-04-22T19:37:43.001Z,18.23
2018-04-22T19:40:12.648Z,12.10
2018-04-22T19:42:41.496Z,13.40
2018-04-22T19:45:10.373Z,12.90
2018-04-22T19:47:40.024Z,13.67
2018-04-22T19:50:10.634Z,13.20
2018-04-22T19:52:40.866Z,15.27
2018-04-22T19:55:09.730Z,14.30
2018-04-22T19:57:39.350Z,14.67
2018-04-22T20:00:09.008Z,15.13
2018-04-22T20:02:37.877Z,15.67
2018-04-22T20:05:06.760Z,15.87
2018-04-22T20:07:35.654Z,16.63
2018-04-22T20:10:04.512Z,18.60
2018-04-22T20:12:34.384Z,18.50
2018-04-22T20:15:03.262Z,17.87
2018-04-22T20:17:32.117Z,17.13
2018-04-22T20:20:00.953Z,16.50
2018-04-22T20:22:29.833Z,16.43
2018-04-22T20:24:59.128Z,18.80
2018-04-22T20:27:27.957Z,17.17
2018-04-22T20:29:57.567Z,16.47
2018-04-22T20:32:26.441Z,18.30
2018-04-22T20:34:55.306Z,18.93
2018-04-22T20:37:24.148Z,18.23
2018-04-22T20:39:53.003Z,18.50
2018-04-22T20:42:22.626Z,18.23
2018-04-22T20:44:51.484Z,18.83
2018-04-22T20:47:21.102Z,17.83
2018-04-22T20:49:49.951Z,19.33
2018-04-22T20:52:19.609Z,18.03
2018-04-22T20:54:49.258Z,17.87
2018-04-22T20:57:18.110Z,19.17
2018-04-22T20:59:46.985Z,17.67
2018-04-22T21:02:15.832Z,19.10
2018-04-22T21:04:44.714Z,21.17
2018-04-22T21:07:13.592Z,18.83
2018-04-22T21:09:42.460Z,19.67
2018-04-22T21:12:11.316Z,21.07
2018-04-22T21:14:40.618Z,20.20
2018-04-22T21:17:10.225Z,19.20
2018-04-22T21:19:39.852Z,19.97
2018-04-22T21:22:08.725Z,18.57
2018-04-22T21:24:37.592Z,20.70
2018-04-22T21:27:06.656Z,21.47
2018-04-22T21:29:36.261Z,21.57
2018-04-22T21:32:05.129Z,21.10
2018-04-22T21:34:34.739Z,20.83
2018-04-22T21:37:04.895Z,20.97
2018-04-22T21:39:33.761Z,20.93
2018-04-22T21:42:02.610Z,21.37
2018-04-22T21:44:33.548Z,22.50
2018-04-22T21:47:02.410Z,23.20
2018-04-22T21:49:31.259Z,21.57
2018-04-22T21:52:00.935Z,20.97
2018-04-22T21:54:29.798Z,19.07
2018-04-22T21:56:58.627Z,21.40
2018-04-22T21:59:28.260Z,24.30
2018-04-22T22:01:57.473Z,23.87
2018-04-22T22:04:26.318Z,21.37
2018-04-22T22:06:55.161Z,23.27
2018-04-22T22:09:24.032Z,23.10
2018-04-22T22:11:54.342Z,22.93
2018-04-22T22:14:23.966Z,23.10
2018-04-22T22:16:52.812Z,23.17
2018-04-22T22:19:23.193Z,23.90
2018-04-22T22:21:52.050Z,24.53
2018-04-22T22:24:21.694Z,23.97
2018-04-22T22:26:51.309Z,22.03
2018-04-22T22:29:20.930Z,23.97
2018-04-22T22:31:50.528Z,24.57
2018-04-22T22:34:20.182Z,24.67
2018-04-22T22:36:49.036Z,22.27
2018-04-22T22:39:19.685Z,22.33
2018-04-22T22:41:48.537Z,21.80
2018-04-22T22:44:17.399Z,19.57
2018-04-22T22:46:46.255Z,20.70
2018-04-22T22:49:15.320Z,18.43
2018-04-22T22:51:44.942Z,18.60
2018-04-22T22:54:13.789Z,22.43
2018-04-22T22:56:43.161Z,19.60
2018-04-22T22:59:12.021Z,20.77
2018-04-22T23:01:41.626Z,21.30
2018-04-22T23:04:11.237Z,19.37
2018-04-22T23:06:40.090Z,20.97
2018-04-22T23:09:08.944Z,22.03
2018-04-22T23:11:37.790Z,19.90
2018-04-22T23:14:07.400Z,21.90
2018-04-22T23:16:37.024Z,17.97
2018-04-22T23:19:05.927Z,19.93
2018-04-22T23:21:35.065Z,21.83
2018-04-22T23:24:04.721Z,20.57
2018-04-22T23:26:33.561Z,19.70
2018-04-22T23:29:03.170Z,19.67
2018-04-22T23:31:32.449Z,21.37
2018-04-22T23:34:01.296Z,22.77
2018-04-22T23:36:30.133Z,21.80
2018-04-22T23:38:59.745Z,21.37
2018-04-22T23:41:28.595Z,20.77
2018-04-22T23:43:57.430Z,22.80
2018-04-22T23:46:27.059Z,21.30
2018-04-22T23:48:56.669Z,21.00
2018-04-22T23:51:25.517Z,22.83
2018-04-22T23:53:54.357Z,23.77
2018-04-22T23:56:23.743Z,20.80
2018-04-22T23:58:52.713Z,23.23
